Time;durP1;ratioP1;P1;durP2;ratioP2;P2;SDS_P1;SDS_P2;PMS_P1;PMS_P2;Temp;Humidity;BMP_temperature;BMP_pressure;BME280_temperature;BME280_humidity;BME280_pressure;Samples;Min_cycle;Max_cycle;Signal;HPM_P1;HPM_P2
2023/10/10 00:02:19;;;;;;;8.57;5.55;;;;;;;20.89;58.07;102031.72;4949142;28;20042;-63
2023/10/10 00:04:47;;;;;;;7.72;4.90;;;;;;;20.88;58.26;102022.06;4949204;28;20499;-63
2023/10/10 00:07:14;;;;;;;9.95;5.30;;;;;;;20.88;57.93;102022.06;4948749;28;20034;-63
2023/10/10 00:09:43;;;;;;;8.95;5.32;;;;;;;20.87;57.96;102025.66;4931751;28;20054;-64
2023/10/10 00:12:10;;;;;;;9.43;5.20;;;;;;;20.88;58.12;102030.03;4949104;28;20031;-63
2023/10/10 00:14:35;;;;;;;7.85;5.07;;;;;;;20.87;58.29;102025.66;4949199;28;20023;-66
2023/10/10 00:17:00;;;;;;;9.32;5.43;;;;;;;20.85;57.78;102031.09;4949009;28;20034;-64
2023/10/10 00:19:37;;;;;;;9.15;5.50;;;;;;;20.86;58.23;102032.78;4948978;28;20044;-63
2023/10/10 00:22:05;;;;;;;10.02;5.43;;;;;;;20.86;58.08;102029.28;4948648;28;20063;-64
2023/10/10 00:24:31;;;;;;;8.60;5.47;;;;;;;20.86;58.04;102031.94;4948917;28;20035;-64
2023/10/10 00:27:12;;;;;;;7.55;5.30;;;;;;;20.84;57.97;102027.59;4949016;28;20078;-63
2023/10/10 00:29:44;;;;;;;9.65;5.55;;;;;;;20.83;58.26;102020.59;4949095;28;20388;-63
2023/10/10 00:32:16;;;;;;;9.05;6.07;;;;;;;20.83;57.64;102019.75;4947017;28;20034;-66
2023/10/10 00:34:43;;;;;;;9.43;5.05;;;;;;;20.83;57.91;102025.06;4948594;28;20035;-63
2023/10/10 00:37:10;;;;;;;8.32;5.22;;;;;;;20.81;57.87;102027.00;4948381;28;20078;-63
2023/10/10 00:39:36;;;;;;;8.45;5.40;;;;;;;20.81;57.69;102021.69;4948474;28;20399;-63
2023/10/10 00:42:07;;;;;;;7.85;5.63;;;;;;;20.81;58.13;102022.53;4948639;28;20034;-64
2023/10/10 00:44:37;;;;;;;11.75;5.00;;;;;;;20.80;57.79;102023.47;4948554;28;20036;-63
2023/10/10 00:47:04;;;;;;;8.30;5.30;;;;;;;20.80;57.73;102017.34;4948223;28;20377;-64
2023/10/10 00:49:34;;;;;;;9.18;5.60;;;;;;;20.80;57.83;102014.69;4948753;28;20121;-63
2023/10/10 00:52:06;;;;;;;8.63;5.80;;;;;;;20.80;57.58;102020.81;4948532;28;20046;-62
2023/10/10 00:54:34;;;;;;;8.18;5.75;;;;;;;20.79;57.83;102013.00;4948388;28;20038;-63
2023/10/10 00:57:00;;;;;;;8.75;5.18;;;;;;;20.79;57.54;102016.50;4948151;28;20031;-63
2023/10/10 00:59:35;;;;;;;10.02;5.82;;;;;;;20.79;57.50;102016.50;4948220;28;20035;-63
2023/10/10 01:02:04;;;;;;;8.95;5.30;;;;;;;20.77;57.34;102004.31;4948200;28;20043;-63
2023/10/10 01:04:35;;;;;;;8.07;5.53;;;;;;;20.79;57.41;102002.38;4948386;28;20039;-64
2023/10/10 01:07:06;;;;;;;8.13;5.63;;;;;;;20.79;57.34;102002.38;4947956;28;20492;-64
2023/10/10 01:09:34;;;;;;;8.98;5.80;;;;;;;20.79;57.43;101997.09;4948129;28;20042;-62
2023/10/10 01:12:04;;;;;;;8.52;5.65;;;;;;;20.77;57.74;101989.25;4947945;28;20102;-63
2023/10/10 01:14:30;;;;;;;8.13;5.72;;;;;;;20.77;57.74;101989.25;4966940;28;20034;-64
2023/10/10 01:16:57;;;;;;;7.75;5.20;;;;;;;20.76;57.34;101995.53;4950088;28;20085;-64
2023/10/10 01:19:29;;;;;;;8.63;5.63;;;;;;;20.75;57.79;101993.84;4967405;28;20047;-63
2023/10/10 01:21:58;;;;;;;7.90;5.40;;;;;;;20.76;57.41;101984.94;4967494;28;20118;-63
2023/10/10 01:24:27;;;;;;;7.88;5.50;;;;;;;20.75;57.34;101985.06;4948118;28;20118;-63
2023/10/10 01:26:53;;;;;;;8.45;5.32;;;;;;;20.76;57.44;101978.78;4948058;28;20028;-63
2023/10/10 01:29:26;;;;;;;8.32;5.63;;;;;;;20.75;57.19;101971.81;4948186;28;20490;-63
2023/10/10 01:31:53;;;;;;;8.45;5.38;;;;;;;20.75;57.20;101972.66;4947950;28;20939;-63
2023/10/10 01:34:32;;;;;;;8.27;5.15;;;;;;;20.74;57.25;101972.75;4948064;28;20023;-65
2023/10/10 01:37:27;;;;;;;9.68;5.75;;;;;;;20.74;57.44;101972.75;4947813;28;20042;-63
2023/10/10 01:40:14;;;;;;;7.97;4.75;;;;;;;20.72;57.67;101966.75;4940040;28;20057;-63
2023/10/10 01:42:51;;;;;;;8.60;5.72;;;;;;;20.75;57.40;101969.16;4946896;28;20546;-63
2023/10/10 01:45:19;;;;;;;8.35;5.80;;;;;;;20.75;57.48;101966.50;4950713;28;20039;-63
2023/10/10 01:47:56;;;;;;;8.10;5.25;;;;;;;20.74;57.21;101957.69;4952055;28;20038;-64
2023/10/10 01:50:22;;;;;;;7.85;5.82;;;;;;;20.73;56.98;101950.72;4951658;28;20119;-63
2023/10/10 01:52:48;;;;;;;9.00;5.45;;;;;;;20.74;57.11;101951.56;4951607;28;20130;-64
2023/10/10 01:55:16;;;;;;;8.27;5.50;;;;;;;20.74;57.51;101949.75;4951554;28;20402;-63
2023/10/10 01:57:42;;;;;;;7.88;5.57;;;;;;;20.73;57.00;101950.72;4951392;28;20093;-64
2023/10/10 02:00:21;;;;;;;8.57;5.38;;;;;;;20.73;57.22;101948.09;4951365;28;20031;-63
2023/10/10 02:02:50;;;;;;;8.73;5.65;;;;;;;20.73;57.02;101944.56;4951417;28;20566;-63
2023/10/10 02:08:03;;;;;;;11.45;6.28;;;;;;;20.72;57.31;101942.91;4951316;28;20047;-63
2023/10/10 02:10:32;;;;;;;10.93;5.95;;;;;;;20.72;57.10;101945.53;4951201;28;20035;-65
2023/10/10 02:13:04;;;;;;;7.78;5.25;;;;;;;20.71;56.79;101935.91;4951395;28;20058;-63
2023/10/10 02:15:34;;;;;;;10.07;5.80;;;;;;;20.69;57.08;101929.88;4950856;28;20039;-64
2023/10/10 02:18:06;;;;;;;9.57;5.80;;;;;;;20.70;57.12;101931.59;4950915;28;20384;-63
2023/10/10 02:25:55;;;;;;;8.57;5.40;;;;;;;20.70;57.07;101921.00;4951119;28;20034;-62
2023/10/10 02:28:22;;;;;;;9.95;5.57;;;;;;;20.69;56.94;101917.47;4950982;28;20039;-65
2023/10/10 02:30:52;;;;;;;8.10;5.20;;;;;;;20.69;57.01;101911.34;4951157;28;20042;-64
2023/10/10 02:35:57;;;;;;;9.60;5.70;;;;;;;20.68;56.63;101912.28;4950874;28;20047;-63
2023/10/10 02:38:32;;;;;;;8.93;5.57;;;;;;;20.69;56.70;101906.03;4950659;28;20027;-64
2023/10/10 02:43:56;;;;;;;8.02;5.57;;;;;;;20.68;57.05;101910.50;4962160;28;20051;-63
2023/10/10 02:46:48;;;;;;;8.55;5.72;;;;;;;20.67;56.87;101906.16;4969705;28;21117;-63
2023/10/10 02:49:29;;;;;;;8.07;5.00;;;;;;;20.67;56.83;101907.97;4969477;28;20043;-64
2023/10/10 02:51:55;;;;;;;9.10;5.85;;;;;;;20.66;56.61;101904.47;4969759;28;20027;-63
2023/10/10 02:54:34;;;;;;;9.15;5.65;;;;;;;20.64;56.89;101906.38;4958917;28;20035;-63
2023/10/10 02:59:50;;;;;;;8.07;5.38;;;;;;;20.66;56.74;101915.06;4950665;28;20506;-62
2023/10/10 03:02:22;;;;;;;9.70;6.13;;;;;;;20.63;56.88;101908.16;4949839;28;20038;-63
2023/10/10 03:07:29;;;;;;;8.10;5.95;;;;;;;20.63;56.55;101902.00;4950467;28;20114;-63
2023/10/10 03:12:41;;;;;;;7.65;5.53;;;;;;;20.65;56.72;101908.91;4949961;28;20456;-63
2023/10/10 03:15:15;;;;;;;8.73;5.93;;;;;;;20.62;56.48;101906.47;4950158;28;20031;-63
2023/10/10 03:18:15;;;;;;;;;;;;;;;20.69;56.41;101908.69;4950453;28;20039;-63
2023/10/10 03:20:50;;;;;;;7.88;5.50;;;;;;;20.67;56.58;101903.50;4950033;28;19922;-63
2023/10/10 03:33:44;;;;;;;8.82;6.10;;;;;;;20.61;56.62;101909.22;4949485;28;20483;-64
2023/10/10 05:25:13;;;;;;;9.48;5.70;;;;;;;20.52;55.85;101859.59;4952384;28;20129;-65
2023/10/10 05:27:41;;;;;;;8.15;5.68;;;;;;;20.50;55.90;101859.72;4951902;28;20031;-63
2023/10/10 05:30:22;;;;;;;9.88;6.20;;;;;;;20.48;55.90;101851.06;4951872;28;20494;-62
2023/10/10 05:33:03;;;;;;;8.98;5.78;;;;;;;20.50;56.19;101857.06;4944491;28;20038;-65
2023/10/10 05:35:43;;;;;;;7.40;5.53;;;;;;;20.48;55.97;101848.41;4951604;28;20134;-63
2023/10/10 05:38:09;;;;;;;7.35;5.07;;;;;;;20.49;56.02;101842.16;4970423;28;20558;-65
2023/10/10 05:40:34;;;;;;;8.50;5.50;;;;;;;20.48;55.98;101841.28;4971442;28;20037;-63
2023/10/10 05:43:04;;;;;;;7.63;5.40;;;;;;;20.50;55.91;101837.69;4970808;28;20736;-62
2023/10/10 05:45:29;;;;;;;9.23;6.10;;;;;;;20.51;56.19;101842.06;4971139;28;20686;-65
2023/10/10 05:47:55;;;;;;;9.32;5.40;;;;;;;20.51;55.77;101836.75;4970759;28;20030;-63
2023/10/10 05:50:22;;;;;;;9.27;5.78;;;;;;;20.48;56.06;101843.94;4967695;28;20407;-63
2023/10/10 05:52:48;;;;;;;12.68;6.40;;;;;;;20.48;56.21;101843.13;4950846;28;20035;-63
2023/10/10 05:55:15;;;;;;;11.35;5.60;;;;;;;20.47;56.28;101841.41;4951867;28;20497;-63
2023/10/10 05:57:41;;;;;;;9.40;5.45;;;;;;;20.46;56.66;101843.22;4950849;28;20440;-65
2023/10/10 06:00:11;;;;;;;8.38;5.65;;;;;;;20.46;56.60;101842.41;4951496;28;20106;-62
2023/10/10 06:02:45;;;;;;;8.57;5.38;;;;;;;20.47;56.83;101844.06;4951165;28;20090;-63
2023/10/10 06:05:12;;;;;;;7.55;4.95;;;;;;;20.47;56.65;101842.28;4951280;28;20041;-62
2023/10/10 06:07:43;;;;;;;7.55;5.50;;;;;;;20.47;57.10;101831.69;4951654;28;20039;-63
2023/10/10 06:10:18;;;;;;;9.13;5.15;;;;;;;20.47;57.04;101836.13;4951430;28;20047;-63
2023/10/10 06:12:48;;;;;;;7.07;4.68;;;;;;;20.46;56.86;101835.28;4951364;28;20136;-63
2023/10/10 06:15:17;;;;;;;9.00;5.75;;;;;;;20.48;57.00;101835.16;4951304;28;20031;-63
2023/10/10 06:17:51;;;;;;;8.93;5.53;;;;;;;20.46;57.02;101834.44;4950865;28;20031;-65
2023/10/10 06:20:21;;;;;;;11.38;5.43;;;;;;;20.50;56.98;101835.06;4950772;28;20047;-63
2023/10/10 06:22:49;;;;;;;8.23;5.05;;;;;;;20.48;57.16;101833.34;4950951;28;20567;-62
2023/10/10 06:25:18;;;;;;;9.18;5.40;;;;;;;20.50;56.97;101840.34;4950560;28;20436;-62
2023/10/10 06:27:54;;;;;;;7.78;4.78;;;;;;;20.48;57.08;101830.72;4950596;28;20469;-65
2023/10/10 06:30:19;;;;;;;11.05;5.60;;;;;;;20.50;57.08;101830.59;4950287;28;20093;-64
2023/10/10 06:32:46;;;;;;;8.80;5.43;;;;;;;20.51;57.36;101831.47;4949325;28;20043;-63
2023/10/10 06:37:45;;;;;;;9.20;5.95;;;;;;;20.51;57.38;101827.00;4950128;28;20066;-64
2023/10/10 06:40:10;;;;;;;10.48;6.22;;;;;;;20.52;57.65;101831.34;4950264;28;20472;-63
2023/10/10 06:42:37;;;;;;;8.15;5.80;;;;;;;20.52;57.31;101834.00;4950427;28;20028;-63
2023/10/10 06:45:21;;;;;;;8.02;5.35;;;;;;;20.51;57.51;101832.28;4950542;28;20027;-63
2023/10/10 06:47:50;;;;;;;8.30;5.57;;;;;;;20.53;57.24;101832.19;4942489;28;20115;-66
2023/10/10 06:50:21;;;;;;;9.63;5.60;;;;;;;20.52;57.32;101831.34;4950493;28;20511;-63
2023/10/10 06:52:52;;;;;;;8.00;5.40;;;;;;;20.53;57.45;101830.34;4942271;28;20600;-63
2023/10/10 06:55:36;;;;;;;9.48;6.20;;;;;;;20.53;57.39;101835.66;4950486;28;20039;-63
2023/10/10 06:58:02;;;;;;;9.82;6.20;;;;;;;20.54;57.62;101831.22;4944383;28;20027;-63
2023/10/10 07:03:39;;;;;;;12.35;5.85;;;;;;;20.54;57.50;101825.94;4917410;28;20129;-63
2023/10/10 07:06:05;;;;;;;11.60;5.95;;;;;;;20.53;57.30;101827.72;4949642;28;20476;-63
2023/10/10 07:08:34;;;;;;;12.43;6.00;;;;;;;20.51;57.79;101832.28;4951734;28;20035;-63
2023/10/10 07:10:59;;;;;;;7.68;5.47;;;;;;;20.53;57.56;101835.66;4950108;28;20510;-64
2023/10/10 07:13:29;;;;;;;8.15;5.68;;;;;;;20.52;57.61;101815.44;4950018;28;20049;-64
2023/10/10 07:15:55;;;;;;;9.77;5.78;;;;;;;20.54;57.21;101821.47;4949890;28;20388;-64
2023/10/10 07:18:23;;;;;;;8.02;5.47;;;;;;;20.50;57.26;101820.00;4949516;28;20051;-63
2023/10/10 07:21:04;;;;;;;11.18;5.82;;;;;;;20.50;57.35;101816.53;4949652;28;20191;-63
2023/10/10 07:23:37;;;;;;;10.95;6.60;;;;;;;20.53;57.23;101814.47;4964054;28;20081;-64
2023/10/10 07:26:19;;;;;;;9.43;6.47;;;;;;;20.52;57.17;101820.75;4949998;28;20041;-63
2023/10/10 07:28:48;;;;;;;9.88;6.10;;;;;;;20.54;57.44;101812.69;4949322;28;20071;-63
2023/10/10 07:31:17;;;;;;;9.23;6.20;;;;;;;20.53;57.19;101819.78;4949455;28;20031;-66
2023/10/10 07:33:44;;;;;;;10.65;6.30;;;;;;;20.53;57.30;101819.78;4949582;28;20133;-63
2023/10/10 07:36:13;;;;;;;10.77;6.32;;;;;;;20.54;56.89;101820.63;4949657;28;20054;-63
2023/10/10 07:38:39;;;;;;;10.20;5.70;;;;;;;20.54;57.08;101816.16;4949834;28;20043;-63
2023/10/10 07:41:04;;;;;;;13.30;6.28;;;;;;;20.51;57.14;101819.06;4949254;28;20066;-62
2023/10/10 07:43:34;;;;;;;8.77;5.53;;;;;;;20.52;57.29;101818.09;4949184;28;20035;-63
2023/10/10 07:46:18;;;;;;;16.52;6.13;;;;;;;20.54;57.52;101810.88;4951890;28;20066;-65
2023/10/10 07:48:46;;;;;;;14.15;5.78;;;;;;;20.55;57.76;101809.88;4949145;28;20074;-64
2023/10/10 07:51:16;;;;;;;10.70;5.60;;;;;;;20.52;57.52;101812.81;4949488;28;20120;-65
2023/10/10 07:53:43;;;;;;;8.98;5.63;;;;;;;20.52;57.73;101815.44;4947975;28;20474;-65
2023/10/10 07:56:09;;;;;;;10.20;5.22;;;;;;;20.54;57.75;101821.47;4948670;28;20031;-64
2023/10/10 07:58:43;;;;;;;8.70;5.25;;;;;;;20.54;57.41;101813.53;4948769;28;20476;-64
2023/10/10 08:01:16;;;;;;;9.07;4.80;;;;;;;20.57;57.40;101810.63;4949311;28;20578;-64
2023/10/10 08:03:44;;;;;;;10.77;5.25;;;;;;;20.61;57.39;101819.19;4948991;28;20078;-65
2023/10/10 08:06:10;;;;;;;8.77;5.07;;;;;;;20.60;57.25;101815.72;4949073;28;20042;-64
2023/10/10 08:08:36;;;;;;;8.65;5.03;;;;;;;20.59;57.03;101815.81;4948903;28;20046;-64
2023/10/10 08:11:06;;;;;;;12.07;5.10;;;;;;;20.62;57.36;101820.88;4949114;28;20035;-64
2023/10/10 08:13:32;;;;;;;7.90;5.05;;;;;;;20.60;57.33;101814.84;4948369;28;20039;-66
2023/10/10 08:16:02;;;;;;;9.23;5.22;;;;;;;20.61;57.00;101822.66;4948236;28;20126;-64
2023/10/10 08:18:41;;;;;;;13.13;5.65;;;;;;;20.61;57.17;101824.47;4948719;28;20054;-65
2023/10/10 08:21:10;;;;;;;10.38;5.43;;;;;;;20.61;57.30;101822.66;4947144;28;20027;-66
2023/10/10 08:23:36;;;;;;;7.35;4.80;;;;;;;20.61;57.13;101820.03;4948735;28;20035;-66
2023/10/10 08:26:02;;;;;;;8.20;4.93;;;;;;;20.60;57.27;101814.84;4948530;28;20452;-65
2023/10/10 08:28:28;;;;;;;8.32;4.93;;;;;;;20.59;57.34;101821.94;4948680;28;20031;-66
2023/10/10 08:30:53;;;;;;;9.10;5.20;;;;;;;20.59;57.49;101814.00;4948912;28;20415;-67
2023/10/10 08:33:19;;;;;;;8.93;5.25;;;;;;;20.58;57.74;101811.47;4948642;28;20046;-64
2023/10/10 08:35:46;;;;;;;7.85;5.00;;;;;;;20.60;57.34;101813.06;4948547;28;20042;-66
2023/10/10 08:38:14;;;;;;;9.48;4.55;;;;;;;20.60;57.33;101814.84;4948573;28;20119;-67
2023/10/10 08:40:43;;;;;;;9.82;5.10;;;;;;;20.57;57.57;101815.94;4948707;28;20045;-65
2023/10/10 08:43:09;;;;;;;8.52;4.90;;;;;;;20.58;57.11;101817.59;4947957;28;20035;-64
2023/10/10 08:45:39;;;;;;;9.35;5.47;;;;;;;20.58;57.29;101817.59;4948552;28;20793;-63
2023/10/10 08:48:12;;;;;;;8.35;4.65;;;;;;;20.59;57.31;101819.31;4948078;28;20046;-64
2023/10/10 08:50:40;;;;;;;9.10;4.95;;;;;;;20.57;57.40;101815.94;4948535;28;20318;-65
2023/10/10 08:53:10;;;;;;;9.52;5.20;;;;;;;20.58;57.30;101825.56;4947487;28;20042;-66
2023/10/10 08:55:38;;;;;;;8.30;5.53;;;;;;;20.60;57.10;101820.13;4948020;28;20082;-64
2023/10/10 08:58:07;;;;;;;9.23;4.80;;;;;;;20.58;57.25;101820.25;4948072;28;20053;-67
2023/10/10 09:00:33;;;;;;;8.98;4.82;;;;;;;20.58;57.34;101814.97;4948444;28;20039;-64
2023/10/10 09:02:59;;;;;;;8.95;4.60;;;;;;;20.58;57.35;101819.41;4947838;28;20031;-66
2023/10/10 09:05:24;;;;;;;8.88;5.35;;;;;;;20.58;57.30;101820.25;4948356;28;20411;-66
2023/10/10 09:07:54;;;;;;;9.35;5.00;;;;;;;20.59;57.42;101815.81;4948451;28;20078;-66
2023/10/10 09:10:28;;;;;;;8.10;4.90;;;;;;;20.59;57.24;101815.81;4930603;28;20390;-65
2023/10/10 09:12:58;;;;;;;7.63;4.65;;;;;;;20.58;57.29;101820.25;4947664;28;20041;-67
2023/10/10 09:15:25;;;;;;;9.23;4.90;;;;;;;20.60;57.11;101821.00;4966833;28;20038;-66
2023/10/10 09:17:55;;;;;;;8.50;4.43;;;;;;;20.60;57.38;101815.72;4947666;28;20046;-65
2023/10/10 09:20:28;;;;;;;8.95;4.95;;;;;;;20.60;57.14;101813.06;4947611;28;20058;-65
2023/10/10 09:22:56;;;;;;;8.95;5.22;;;;;;;20.62;57.24;101815.59;4947777;28;20035;-66
2023/10/10 09:25:31;;;;;;;9.80;5.43;;;;;;;20.62;57.08;101818.25;4948272;28;20035;-64
2023/10/10 09:27:59;;;;;;;7.78;4.35;;;;;;;20.61;57.16;101809.44;4947712;28;20063;-64
2023/10/10 09:30:31;;;;;;;9.60;4.75;;;;;;;20.61;57.17;101816.53;4946646;28;20411;-64
2023/10/10 09:35:48;;;;;;;8.73;5.00;;;;;;;20.64;57.09;101811.03;4966829;28;20407;-66
2023/10/10 09:38:19;;;;;;;8.98;5.32;;;;;;;20.63;56.76;101820.78;4958278;28;20031;-65
2023/10/10 09:40:59;;;;;;;9.80;4.60;;;;;;;20.62;57.03;101819.06;4948076;28;20031;-65
2023/10/10 09:43:35;;;;;;;8.23;5.03;;;;;;;20.64;56.86;101826.94;4947705;28;20028;-64
2023/10/10 09:46:19;;;;;;;7.28;4.72;;;;;;;20.62;57.11;101816.41;4947770;28;20031;-68
2023/10/10 09:49:17;;;;;;;7.28;4.63;;;;;;;20.64;56.81;101811.03;4947307;28;20035;-66
2023/10/10 09:54:25;;;;;;;8.48;5.20;;;;;;;20.64;56.82;101819.00;4916934;28;20047;-64
2023/10/10 09:56:53;;;;;;;8.77;4.88;;;;;;;20.64;56.77;101819.81;4940791;28;20031;-64
2023/10/10 09:59:28;;;;;;;9.27;4.70;;;;;;;20.64;56.98;101821.63;4947378;28;20110;-66
2023/10/10 10:02:00;;;;;;;8.07;4.90;;;;;;;20.63;56.97;101826.06;4947730;28;20086;-65
2023/10/10 10:04:29;;;;;;;9.60;4.95;;;;;;;20.61;57.16;101827.13;4947292;28;20031;-64
2023/10/10 10:07:17;;;;;;;8.27;4.88;;;;;;;20.59;57.00;101824.59;4951206;28;20391;-63
2023/10/10 10:10:12;;;;;;;8.38;4.53;;;;;;;20.63;57.28;101812.81;4950888;28;20086;-63
2023/10/10 10:12:59;;;;;;;7.95;4.22;;;;;;;20.67;57.00;101815.28;4951308;28;20109;-64
2023/10/10 10:15:58;;;;;;;7.70;4.53;;;;;;;20.64;57.09;101811.03;4951120;28;20046;-64
2023/10/10 10:18:27;;;;;;;10.43;5.00;;;;;;;20.67;56.77;101810.81;4951157;28;20774;-64
2023/10/10 10:23:37;;;;;;;9.77;4.68;;;;;;;20.56;57.44;101800.16;4946716;28;20380;-65
2023/10/10 10:26:04;;;;;;;7.10;4.35;;;;;;;20.42;58.09;101814.44;4950504;28;20483;-65
2023/10/10 10:28:36;;;;;;;8.05;4.70;;;;;;;20.37;58.41;101803.38;4950142;28;20043;-65
2023/10/10 10:31:29;;;;;;;14.32;5.00;;;;;;;20.29;58.69;101796.84;4950021;28;20039;-64
2023/10/10 10:34:31;;;;;;;8.63;4.57;;;;;;;20.28;58.53;101802.25;4949281;28;20031;-64
2023/10/10 10:37:07;;;;;;;11.40;4.72;;;;;;;20.26;58.50;101807.66;4956454;28;20720;-64
2023/10/10 10:39:37;;;;;;;8.68;4.45;;;;;;;20.24;58.80;101801.66;4950104;28;20503;-63
2023/10/10 10:42:11;;;;;;;11.07;4.40;;;;;;;20.26;58.83;101802.34;4969405;28;20403;-64
2023/10/10 10:47:34;;;;;;;7.82;4.07;;;;;;;20.27;58.76;101797.94;4949678;28;20166;-66
2023/10/10 10:50:05;;;;;;;7.60;4.32;;;;;;;20.28;59.07;101796.94;4943683;28;20039;-64
2023/10/10 10:52:43;;;;;;;9.48;3.90;;;;;;;20.27;58.81;101790.81;4949532;28;20043;-64
2023/10/10 10:55:22;;;;;;;8.77;4.60;;;;;;;20.29;59.09;101788.06;4957001;28;20043;-64
2023/10/10 10:57:49;;;;;;;9.68;4.40;;;;;;;20.29;58.95;101791.53;4949399;28;20487;-64
2023/10/10 11:00:27;;;;;;;9.38;4.15;;;;;;;20.34;58.88;101791.19;4942907;28;20047;-65
2023/10/10 11:02:59;;;;;;;7.05;4.10;;;;;;;20.35;59.03;101790.25;4942509;28;20035;-66
2023/10/10 11:05:28;;;;;;;9.40;5.88;;;;;;;20.39;58.61;101788.22;4949528;28;20122;-66
2023/10/10 11:08:06;;;;;;;8.38;5.40;;;;;;;20.40;58.43;101787.25;4950683;28;20035;-65
2023/10/10 11:10:37;;;;;;;7.10;4.18;;;;;;;20.40;58.59;101780.16;4949215;28;20407;-64
2023/10/10 11:13:07;;;;;;;8.40;4.68;;;;;;;20.46;58.29;101776.19;4949556;28;20387;-63
2023/10/10 11:15:38;;;;;;;7.85;4.10;;;;;;;20.47;58.46;101769.91;4949764;28;20062;-65
2023/10/10 11:18:07;;;;;;;8.45;4.43;;;;;;;20.46;58.41;101769.09;4948579;28;20050;-64
2023/10/10 11:20:55;;;;;;;8.85;4.63;;;;;;;20.48;58.34;101761.88;4949189;28;20079;-64
2023/10/10 11:23:21;;;;;;;9.90;4.63;;;;;;;20.48;58.33;101763.69;4949425;28;20034;-63
2023/10/10 11:25:58;;;;;;;8.75;5.22;;;;;;;20.46;58.27;101758.50;4941454;28;20031;-64
2023/10/10 11:28:36;;;;;;;9.65;5.00;;;;;;;20.45;58.06;101755.97;4949192;28;20035;-64
2023/10/10 11:31:07;;;;;;;9.20;4.28;;;;;;;20.45;58.38;101755.97;4968465;28;20038;-65
2023/10/10 11:33:46;;;;;;;9.75;4.43;;;;;;;20.45;58.67;101748.84;4965318;28;20023;-66
2023/10/10 11:36:37;;;;;;;8.05;4.47;;;;;;;20.44;58.54;101749.84;4948959;28;20468;-64
2023/10/10 11:39:16;;;;;;;11.43;4.47;;;;;;;20.47;58.50;101749.59;4962201;28;20047;-64
2023/10/10 11:41:45;;;;;;;9.73;4.50;;;;;;;20.45;58.61;101743.56;4968300;28;20026;-65
2023/10/10 11:44:17;;;;;;;7.57;4.43;;;;;;;20.46;58.94;101747.06;4948702;28;20827;-64
2023/10/10 11:46:42;;;;;;;8.30;4.07;;;;;;;20.46;58.70;101744.44;4949331;28;20024;-64
2023/10/10 11:49:16;;;;;;;7.03;3.65;;;;;;;20.47;59.00;101740.78;4949057;28;20387;-65
2023/10/10 11:51:42;;;;;;;10.23;4.47;;;;;;;20.50;58.92;101742.38;4948875;28;20039;-66
2023/10/10 11:54:07;;;;;;;9.13;4.25;;;;;;;20.48;58.86;101738.03;4948923;28;20451;-63
2023/10/10 11:56:36;;;;;;;8.57;3.88;;;;;;;20.50;58.72;101729.97;4948882;28;20031;-65
2023/10/10 11:59:13;;;;;;;9.07;4.50;;;;;;;20.50;58.79;101723.84;4948632;28;20035;-66
2023/10/10 12:04:30;;;;;;;8.50;4.13;;;;;;;20.54;58.68;101726.13;4948498;28;20633;-64
2023/10/10 12:06:58;;;;;;;7.50;4.28;;;;;;;20.55;59.01;101726.97;4948843;28;20031;-63
2023/10/10 12:09:26;;;;;;;7.18;3.83;;;;;;;20.55;58.90;101719.03;4948253;28;20035;-65
2023/10/10 12:11:58;;;;;;;7.32;3.78;;;;;;;20.56;58.88;101716.25;4967918;28;20038;-67
2023/10/10 12:14:24;;;;;;;10.18;3.83;;;;;;;20.75;58.39;101715.69;4966655;28;20487;-65
2023/10/10 12:16:53;;;;;;;8.70;3.80;;;;;;;20.86;58.21;101714.84;4967103;28;20042;-65
2023/10/10 12:19:18;;;;;;;7.80;4.25;;;;;;;20.96;57.56;101715.78;4948453;28;20091;-64
2023/10/10 12:21:44;;;;;;;6.10;4.00;;;;;;;21.01;57.37;101716.28;4948502;28;20408;-64
2023/10/10 12:24:09;;;;;;;6.53;3.28;;;;;;;21.06;56.75;101717.72;4948331;28;20281;-65
2023/10/10 12:26:41;;;;;;;9.98;3.95;;;;;;;21.07;56.15;101711.44;4948825;28;20027;-64
2023/10/10 12:29:10;;;;;;;7.60;3.75;;;;;;;21.06;56.37;101704.47;4948448;28;20035;-65
2023/10/10 12:31:36;;;;;;;6.63;3.50;;;;;;;21.09;56.61;101704.22;4948914;28;20035;-64
2023/10/10 12:34:02;;;;;;;7.90;4.13;;;;;;;21.08;56.42;101703.38;4947771;28;20027;-65
2023/10/10 12:36:32;;;;;;;7.95;3.60;;;;;;;21.08;56.89;101697.22;4946137;28;20043;-65
2023/10/10 12:38:59;;;;;;;10.05;3.90;;;;;;;21.02;57.42;101687.97;4947575;28;20031;-67
2023/10/10 12:41:26;;;;;;;7.68;4.00;;;;;;;21.00;57.71;101688.09;4946990;28;20142;-63
2023/10/10 12:43:51;;;;;;;11.20;3.88;;;;;;;20.95;58.08;101692.06;4947582;28;20126;-65
2023/10/10 12:46:20;;;;;;;12.02;3.80;;;;;;;20.90;58.46;101689.78;4948185;28;20037;-65
2023/10/10 12:48:51;;;;;;;7.70;3.65;;;;;;;20.85;58.30;101681.34;4947263;28;20094;-62
2023/10/10 12:51:16;;;;;;;5.65;3.13;;;;;;;20.82;58.56;101685.13;4948058;28;20126;-63
2023/10/10 12:53:45;;;;;;;10.80;3.85;;;;;;;20.85;58.50;101681.34;4947904;28;20531;-64
2023/10/10 12:56:17;;;;;;;8.48;3.95;;;;;;;20.89;58.71;101681.97;4947843;28;20034;-63
2023/10/10 12:58:51;;;;;;;10.90;3.97;;;;;;;20.87;58.72;101683.88;4947878;28;20027;-66
2023/10/10 13:01:23;;;;;;;7.13;3.45;;;;;;;20.83;58.84;101684.13;4947878;28;20135;-63
2023/10/10 13:03:49;;;;;;;10.45;4.40;;;;;;;20.83;58.95;101683.28;4948366;28;20035;-64
2023/10/10 13:06:14;;;;;;;7.97;3.90;;;;;;;20.80;58.82;101678.25;4947664;28;20035;-66
2023/10/10 13:08:47;;;;;;;9.32;3.45;;;;;;;20.79;59.25;101680.06;4947606;28;20178;-64
2023/10/10 13:11:14;;;;;;;8.40;3.53;;;;;;;20.79;59.58;101682.72;4947982;28;20029;-65
2023/10/10 13:13:56;;;;;;;6.75;3.70;;;;;;;20.76;59.40;101682.09;4947433;28;20039;-64
2023/10/10 13:16:27;;;;;;;7.97;4.20;;;;;;;20.75;59.71;101680.44;4947744;28;20041;-64
2023/10/10 13:18:55;;;;;;;11.60;3.42;;;;;;;20.77;59.44;101681.97;4947331;28;20058;-63
2023/10/10 13:21:20;;;;;;;8.05;3.65;;;;;;;20.80;59.06;101678.25;4947222;28;20051;-65
2023/10/10 13:23:50;;;;;;;8.32;3.55;;;;;;;20.79;59.29;101673.91;4946572;28;20411;-64
2023/10/10 13:26:16;;;;;;;8.25;3.63;;;;;;;20.80;59.24;101675.59;4947677;28;20042;-65
2023/10/10 13:28:46;;;;;;;8.70;3.45;;;;;;;20.79;59.30;101676.53;4947442;28;20027;-66
2023/10/10 13:31:16;;;;;;;9.43;3.72;;;;;;;20.80;58.95;101676.44;4947373;28;20441;-65
2023/10/10 13:33:42;;;;;;;8.13;3.65;;;;;;;20.80;59.40;101672.94;4947144;28;20106;-66
2023/10/10 13:36:12;;;;;;;8.45;3.65;;;;;;;20.81;59.43;101675.47;4947659;28;20469;-66
2023/10/10 13:38:53;;;;;;;7.15;3.35;;;;;;;20.78;59.06;101683.66;4966351;28;20034;-66
2023/10/10 13:41:21;;;;;;;8.35;3.70;;;;;;;20.84;58.80;101677.03;4968741;28;20495;-63
2023/10/10 13:43:47;;;;;;;11.23;3.78;;;;;;;20.82;58.75;101673.66;4970134;28;20489;-64
2023/10/10 13:46:14;;;;;;;8.63;3.50;;;;;;;20.82;58.81;101677.16;4950704;28;20147;-65
2023/10/10 13:48:40;;;;;;;7.97;4.00;;;;;;;20.80;59.25;101667.66;4950879;28;20031;-64
2023/10/10 13:51:07;;;;;;;10.05;3.38;;;;;;;20.80;58.88;101665.00;4951042;28;20404;-64
2023/10/10 13:53:33;;;;;;;7.90;3.80;;;;;;;20.91;58.47;101664.97;4941301;28;20027;-63
2023/10/10 13:56:05;;;;;;;8.50;3.75;;;;;;;21.05;58.29;101666.53;4951306;28;20046;-61
2023/10/10 13:58:31;;;;;;;7.07;3.28;;;;;;;21.19;57.77;101665.41;4968063;28;20047;-61
2023/10/10 14:01:13;;;;;;;6.68;3.33;;;;;;;21.24;57.56;101657.06;4968601;28;20038;-61
2023/10/10 14:03:45;;;;;;;10.65;3.70;;;;;;;21.28;57.30;101651.38;4967231;28;20074;-63
2023/10/10 14:06:19;;;;;;;8.98;3.50;;;;;;;21.28;57.01;101655.84;4970195;28;20035;-65
2023/10/10 14:08:47;;;;;;;7.55;3.20;;;;;;;21.30;57.10;101653.91;4969487;28;20381;-64
2023/10/10 14:11:20;;;;;;;9.35;3.60;;;;;;;21.30;57.40;101645.94;4969131;28;20519;-65
2023/10/10 14:13:46;;;;;;;8.50;3.60;;;;;;;21.30;57.49;101651.25;4969157;28;20121;-65
2023/10/10 14:16:12;;;;;;;12.27;3.60;;;;;;;21.29;57.15;101644.28;4970103;28;20483;-65
2023/10/10 14:18:46;;;;;;;8.95;3.67;;;;;;;21.27;57.17;101648.84;4947203;28;20055;-65
2023/10/10 14:21:13;;;;;;;9.13;3.28;;;;;;;21.28;57.36;101648.72;4949009;28;20039;-65
2023/10/10 14:23:39;;;;;;;7.53;3.13;;;;;;;21.27;56.99;101648.84;4950137;28;20078;-64